sensor_id;sensor_type;location;lat;lon;timestamp;P1;durP1;ratioP1;P2;durP2;ratioP2
8017;SDS011;4054;52.666;4.770;2023-04-24T00:00:10;62.35;;;57.63;;
8017;SDS011;4054;52.666;4.770;2023-04-24T00:00:45;61.80;;;57.40;;
8017;SDS011;4054;52.666;4.770;2023-04-24T00:01:18;61.60;;;57.30;;
8017;SDS011;4054;52.666;4.770;2023-04-24T00:01:52;62.08;;;57.75;;
8017;SDS011;4054;52.666;4.770;2023-04-24T00:02:24;62.05;;;57.42;;
8017;SDS011;4054;52.666;4.770;2023-04-24T00:02:57;61.35;;;57.05;;
8017;SDS011;4054;52.666;4.770;2023-04-24T00:03:30;62.33;;;57.80;;
8017;SDS011;4054;52.666;4.770;2023-04-24T00:04:05;62.42;;;57.75;;
8017;SDS011;4054;52.666;4.770;2023-04-24T00:04:38;62.03;;;57.53;;
8017;SDS011;4054;52.666;4.770;2023-04-24T00:05:11;62.08;;;57.55;;
8017;SDS011;4054;52.666;4.770;2023-04-24T00:05:46;61.97;;;57.58;;
8017;SDS011;4054;52.666;4.770;2023-04-24T00:06:18;62.40;;;57.60;;
8017;SDS011;4054;52.666;4.770;2023-04-24T00:06:51;61.80;;;57.30;;
8017;SDS011;4054;52.666;4.770;2023-04-24T00:07:28;62.65;;;57.95;;
8017;SDS011;4054;52.666;4.770;2023-04-24T00:08:01;61.83;;;57.42;;
8017;SDS011;4054;52.666;4.770;2023-04-24T00:08:34;61.88;;;57.38;;
8017;SDS011;4054;52.666;4.770;2023-04-24T00:09:07;62.47;;;57.95;;
8017;SDS011;4054;52.666;4.770;2023-04-24T00:09:41;62.05;;;57.70;;
8017;SDS011;4054;52.666;4.770;2023-04-24T00:10:15;61.80;;;57.40;;
8017;SDS011;4054;52.666;4.770;2023-04-24T00:10:48;61.72;;;57.35;;
8017;SDS011;4054;52.666;4.770;2023-04-24T00:11:20;62.10;;;57.65;;
8017;SDS011;4054;52.666;4.770;2023-04-24T00:11:54;62.22;;;57.78;;
8017;SDS011;4054;52.666;4.770;2023-04-24T00:12:27;62.25;;;57.55;;
8017;SDS011;4054;52.666;4.770;2023-04-24T00:13:00;61.95;;;57.45;;
8017;SDS011;4054;52.666;4.770;2023-04-24T00:13:32;62.42;;;57.75;;
8017;SDS011;4054;52.666;4.770;2023-04-24T00:14:06;61.83;;;57.25;;
8017;SDS011;4054;52.666;4.770;2023-04-24T00:14:38;61.53;;;57.20;;
8017;SDS011;4054;52.666;4.770;2023-04-24T00:15:12;62.60;;;57.70;;
8017;SDS011;4054;52.666;4.770;2023-04-24T00:15:45;62.40;;;57.85;;
8017;SDS011;4054;52.666;4.770;2023-04-24T00:16:18;61.72;;;57.33;;
8017;SDS011;4054;52.666;4.770;2023-04-24T00:16:51;62.47;;;57.77;;
8017;SDS011;4054;52.666;4.770;2023-04-24T00:17:24;62.72;;;58.22;;
8017;SDS011;4054;52.666;4.770;2023-04-24T00:17:57;61.58;;;56.97;;
8017;SDS011;4054;52.666;4.770;2023-04-24T00:18:30;62.35;;;57.65;;
8017;SDS011;4054;52.666;4.770;2023-04-24T00:19:02;62.53;;;57.92;;
8017;SDS011;4054;52.666;4.770;2023-04-24T00:19:37;62.03;;;57.70;;
8017;SDS011;4054;52.666;4.770;2023-04-24T00:20:11;62.22;;;57.60;;
8017;SDS011;4054;52.666;4.770;2023-04-24T00:20:43;61.92;;;57.53;;
8017;SDS011;4054;52.666;4.770;2023-04-24T00:21:18;62.50;;;57.97;;
8017;SDS011;4054;52.666;4.770;2023-04-24T00:21:50;62.20;;;57.80;;
8017;SDS011;4054;52.666;4.770;2023-04-24T00:22:23;62.22;;;57.90;;
8017;SDS011;4054;52.666;4.770;2023-04-24T00:22:56;62.40;;;57.78;;
8017;SDS011;4054;52.666;4.770;2023-04-24T00:23:29;61.90;;;57.50;;
8017;SDS011;4054;52.666;4.770;2023-04-24T00:24:02;62.22;;;57.45;;
8017;SDS011;4054;52.666;4.770;2023-04-24T00:24:36;62.30;;;57.70;;
8017;SDS011;4054;52.666;4.770;2023-04-24T00:25:08;62.03;;;57.63;;
8017;SDS011;4054;52.666;4.770;2023-04-24T00:25:41;62.75;;;58.25;;
8017;SDS011;4054;52.666;4.770;2023-04-24T00:26:14;62.75;;;58.13;;
8017;SDS011;4054;52.666;4.770;2023-04-24T00:26:47;62.67;;;57.97;;
8017;SDS011;4054;52.666;4.770;2023-04-24T00:27:19;62.65;;;58.03;;
8017;SDS011;4054;52.666;4.770;2023-04-24T00:27:53;62.15;;;57.40;;
8017;SDS011;4054;52.666;4.770;2023-04-24T00:28:25;62.33;;;57.72;;
8017;SDS011;4054;52.666;4.770;2023-04-24T00:28:58;62.35;;;57.75;;
8017;SDS011;4054;52.666;4.770;2023-04-24T00:29:32;63.28;;;58.67;;
8017;SDS011;4054;52.666;4.770;2023-04-24T00:30:05;63.03;;;58.13;;
8017;SDS011;4054;52.666;4.770;2023-04-24T00:30:39;62.40;;;57.95;;
8017;SDS011;4054;52.666;4.770;2023-04-24T00:31:13;62.42;;;57.80;;
8017;SDS011;4054;52.666;4.770;2023-04-24T00:31:45;62.97;;;58.47;;
8017;SDS011;4054;52.666;4.770;2023-04-24T00:32:19;62.97;;;58.28;;
8017;SDS011;4054;52.666;4.770;2023-04-24T00:32:52;62.03;;;57.63;;
8017;SDS011;4054;52.666;4.770;2023-04-24T00:33:27;62.65;;;57.97;;
8017;SDS011;4054;52.666;4.770;2023-04-24T00:34:01;62.53;;;57.92;;
8017;SDS011;4054;52.666;4.770;2023-04-24T00:34:33;62.90;;;58.20;;
8017;SDS011;4054;52.666;4.770;2023-04-24T00:35:06;63.63;;;58.92;;
8017;SDS011;4054;52.666;4.770;2023-04-24T00:35:40;62.88;;;58.30;;
8017;SDS011;4054;52.666;4.770;2023-04-24T00:36:15;62.40;;;57.90;;
8017;SDS011;4054;52.666;4.770;2023-04-24T00:36:48;62.88;;;58.30;;
8017;SDS011;4054;52.666;4.770;2023-04-24T00:37:23;62.47;;;57.88;;
8017;SDS011;4054;52.666;4.770;2023-04-24T00:37:55;63.25;;;58.38;;
8017;SDS011;4054;52.666;4.770;2023-04-24T00:38:28;63.47;;;58.78;;
8017;SDS011;4054;52.666;4.770;2023-04-24T00:39:02;63.15;;;58.35;;
8017;SDS011;4054;52.666;4.770;2023-04-24T00:39:34;62.80;;;58.10;;
8017;SDS011;4054;52.666;4.770;2023-04-24T00:40:07;62.92;;;58.25;;
8017;SDS011;4054;52.666;4.770;2023-04-24T00:40:41;62.72;;;58.20;;
8017;SDS011;4054;52.666;4.770;2023-04-24T00:41:14;63.05;;;58.58;;
8017;SDS011;4054;52.666;4.770;2023-04-24T00:41:46;62.75;;;58.25;;
8017;SDS011;4054;52.666;4.770;2023-04-24T00:42:22;62.72;;;58.10;;
8017;SDS011;4054;52.666;4.770;2023-04-24T00:42:55;62.42;;;58.03;;
8017;SDS011;4054;52.666;4.770;2023-04-24T00:43:28;62.85;;;58.25;;
8017;SDS011;4054;52.666;4.770;2023-04-24T00:44:01;63.72;;;58.53;;
8017;SDS011;4054;52.666;4.770;2023-04-24T00:44:34;62.58;;;58.08;;
8017;SDS011;4054;52.666;4.770;2023-04-24T00:45:07;62.47;;;57.95;;
8017;SDS011;4054;52.666;4.770;2023-04-24T00:45:42;62.25;;;57.65;;
8017;SDS011;4054;52.666;4.770;2023-04-24T00:46:16;62.00;;;57.63;;
8017;SDS011;4054;52.666;4.770;2023-04-24T00:46:49;62.75;;;58.15;;
8017;SDS011;4054;52.666;4.770;2023-04-24T00:47:26;63.08;;;58.58;;
8017;SDS011;4054;52.666;4.770;2023-04-24T00:47:59;61.70;;;57.40;;
8017;SDS011;4054;52.666;4.770;2023-04-24T00:48:33;62.90;;;58.10;;
8017;SDS011;4054;52.666;4.770;2023-04-24T00:49:06;62.22;;;57.63;;
8017;SDS011;4054;52.666;4.770;2023-04-24T00:49:39;62.78;;;58.08;;
8017;SDS011;4054;52.666;4.770;2023-04-24T00:50:12;62.17;;;57.80;;
8017;SDS011;4054;52.666;4.770;2023-04-24T00:50:48;62.15;;;57.55;;
8017;SDS011;4054;52.666;4.770;2023-04-24T00:51:20;62.47;;;57.58;;
8017;SDS011;4054;52.666;4.770;2023-04-24T00:51:53;62.38;;;57.97;;
8017;SDS011;4054;52.666;4.770;2023-04-24T00:52:28;61.95;;;57.42;;
8017;SDS011;4054;52.666;4.770;2023-04-24T00:53:02;61.70;;;57.30;;
8017;SDS011;4054;52.666;4.770;2023-04-24T00:53:35;62.30;;;57.67;;
8017;SDS011;4054;52.666;4.770;2023-04-24T00:54:08;61.33;;;57.13;;
8017;SDS011;4054;52.666;4.770;2023-04-24T00:54:41;61.80;;;57.40;;
8017;SDS011;4054;52.666;4.770;2023-04-24T00:55:14;62.30;;;57.80;;
8017;SDS011;4054;52.666;4.770;2023-04-24T00:55:47;62.30;;;57.70;;
8017;SDS011;4054;52.666;4.770;2023-04-24T00:56:20;62.08;;;57.30;;
8017;SDS011;4054;52.666;4.770;2023-04-24T00:56:52;63.38;;;58.58;;
8017;SDS011;4054;52.666;4.770;2023-04-24T00:57:26;61.65;;;57.25;;
8017;SDS011;4054;52.666;4.770;2023-04-24T00:57:59;62.20;;;57.67;;
8017;SDS011;4054;52.666;4.770;2023-04-24T00:58:32;62.40;;;57.88;;
8017;SDS011;4054;52.666;4.770;2023-04-24T00:59:05;62.95;;;58.25;;
8017;SDS011;4054;52.666;4.770;2023-04-24T00:59:38;62.17;;;57.53;;
8017;SDS011;4054;52.666;4.770;2023-04-24T01:00:12;62.22;;;57.53;;
8017;SDS011;4054;52.666;4.770;2023-04-24T01:00:49;62.67;;;58.28;;
8017;SDS011;4054;52.666;4.770;2023-04-24T01:01:24;62.38;;;57.83;;
8017;SDS011;4054;52.666;4.770;2023-04-24T01:01:57;62.85;;;58.30;;
8017;SDS011;4054;52.666;4.770;2023-04-24T01:02:31;62.85;;;58.25;;
8017;SDS011;4054;52.666;4.770;2023-04-24T01:03:06;62.85;;;58.03;;
8017;SDS011;4054;52.666;4.770;2023-04-24T01:03:39;62.30;;;57.70;;
8017;SDS011;4054;52.666;4.770;2023-04-24T01:04:14;62.47;;;57.97;;
8017;SDS011;4054;52.666;4.770;2023-04-24T01:04:49;62.08;;;57.53;;
8017;SDS011;4054;52.666;4.770;2023-04-24T01:05:22;62.50;;;58.10;;
8017;SDS011;4054;52.666;4.770;2023-04-24T01:05:56;62.28;;;57.63;;
8017;SDS011;4054;52.666;4.770;2023-04-24T01:06:29;62.72;;;57.92;;
8017;SDS011;4054;52.666;4.770;2023-04-24T01:07:02;63.05;;;58.15;;
8017;SDS011;4054;52.666;4.770;2023-04-24T01:07:41;63.22;;;58.42;;
8017;SDS011;4054;52.666;4.770;2023-04-24T01:08:17;63.28;;;58.30;;
8017;SDS011;4054;52.666;4.770;2023-04-24T01:08:51;62.33;;;57.72;;
8017;SDS011;4054;52.666;4.770;2023-04-24T01:09:24;62.00;;;57.60;;
8017;SDS011;4054;52.666;4.770;2023-04-24T01:09:57;62.10;;;57.60;;
8017;SDS011;4054;52.666;4.770;2023-04-24T01:10:31;62.38;;;57.78;;
8017;SDS011;4054;52.666;4.770;2023-04-24T01:11:06;62.25;;;57.72;;
8017;SDS011;4054;52.666;4.770;2023-04-24T01:11:39;62.67;;;57.90;;
8017;SDS011;4054;52.666;4.770;2023-04-24T01:12:15;62.60;;;57.90;;
8017;SDS011;4054;52.666;4.770;2023-04-24T01:12:49;62.28;;;57.78;;
8017;SDS011;4054;52.666;4.770;2023-04-24T01:13:24;61.90;;;57.30;;
8017;SDS011;4054;52.666;4.770;2023-04-24T01:13:56;62.70;;;58.10;;
8017;SDS011;4054;52.666;4.770;2023-04-24T01:14:30;62.78;;;58.17;;
8017;SDS011;4054;52.666;4.770;2023-04-24T01:15:04;62.40;;;57.90;;
8017;SDS011;4054;52.666;4.770;2023-04-24T01:15:39;62.17;;;57.78;;
8017;SDS011;4054;52.666;4.770;2023-04-24T01:16:13;62.90;;;58.13;;
8017;SDS011;4054;52.666;4.770;2023-04-24T01:16:48;62.53;;;58.13;;
8017;SDS011;4054;52.666;4.770;2023-04-24T01:17:21;62.60;;;58.03;;
8017;SDS011;4054;52.666;4.770;2023-04-24T01:17:54;62.65;;;58.00;;
8017;SDS011;4054;52.666;4.770;2023-04-24T01:18:27;62.75;;;58.22;;
8017;SDS011;4054;52.666;4.770;2023-04-24T01:19:00;63.05;;;58.45;;
8017;SDS011;4054;52.666;4.770;2023-04-24T01:19:33;62.83;;;58.22;;
8017;SDS011;4054;52.666;4.770;2023-04-24T01:20:08;62.97;;;58.17;;
8017;SDS011;4054;52.666;4.770;2023-04-24T01:20:42;63.67;;;58.50;;
8017;SDS011;4054;52.666;4.770;2023-04-24T01:21:16;63.65;;;58.83;;
8017;SDS011;4054;52.666;4.770;2023-04-24T01:21:53;64.40;;;59.50;;
8017;SDS011;4054;52.666;4.770;2023-04-24T01:22:31;63.63;;;58.65;;
8017;SDS011;4054;52.666;4.770;2023-04-24T01:23:04;65.03;;;59.75;;
8017;SDS011;4054;52.666;4.770;2023-04-24T01:23:37;65.35;;;60.30;;
8017;SDS011;4054;52.666;4.770;2023-04-24T01:24:10;65.45;;;60.25;;
8017;SDS011;4054;52.666;4.770;2023-04-24T01:24:43;65.40;;;60.15;;
8017;SDS011;4054;52.666;4.770;2023-04-24T01:25:16;65.03;;;59.53;;
8017;SDS011;4054;52.666;4.770;2023-04-24T01:25:50;66.28;;;60.88;;
8017;SDS011;4054;52.666;4.770;2023-04-24T01:26:23;67.18;;;61.13;;
8017;SDS011;4054;52.666;4.770;2023-04-24T01:26:56;66.72;;;60.90;;
8017;SDS011;4054;52.666;4.770;2023-04-24T01:27:29;66.28;;;60.65;;
8017;SDS011;4054;52.666;4.770;2023-04-24T01:28:02;66.75;;;61.03;;
8017;SDS011;4054;52.666;4.770;2023-04-24T01:28:36;66.82;;;61.13;;
8017;SDS011;4054;52.666;4.770;2023-04-24T01:29:09;66.80;;;60.70;;
8017;SDS011;4054;52.666;4.770;2023-04-24T01:29:42;66.90;;;61.03;;
8017;SDS011;4054;52.666;4.770;2023-04-24T01:30:16;65.65;;;60.13;;
8017;SDS011;4054;52.666;4.770;2023-04-24T01:30:48;65.90;;;60.50;;
8017;SDS011;4054;52.666;4.770;2023-04-24T01:31:21;66.80;;;60.95;;
8017;SDS011;4054;52.666;4.770;2023-04-24T01:31:55;66.57;;;60.88;;
8017;SDS011;4054;52.666;4.770;2023-04-24T01:32:31;66.28;;;60.90;;
8017;SDS011;4054;52.666;4.770;2023-04-24T01:33:05;66.85;;;60.92;;
8017;SDS011;4054;52.666;4.770;2023-04-24T01:33:37;66.13;;;60.50;;
8017;SDS011;4054;52.666;4.770;2023-04-24T01:34:10;66.03;;;60.40;;
8017;SDS011;4054;52.666;4.770;2023-04-24T01:34:43;66.18;;;60.47;;
8017;SDS011;4054;52.666;4.770;2023-04-24T01:35:17;66.28;;;60.95;;
8017;SDS011;4054;52.666;4.770;2023-04-24T01:35:50;65.93;;;60.58;;
8017;SDS011;4054;52.666;4.770;2023-04-24T01:36:23;66.53;;;60.72;;
8017;SDS011;4054;52.666;4.770;2023-04-24T01:36:58;66.68;;;61.10;;
8017;SDS011;4054;52.666;4.770;2023-04-24T01:37:33;67.32;;;61.45;;
8017;SDS011;4054;52.666;4.770;2023-04-24T01:38:07;66.32;;;60.60;;
8017;SDS011;4054;52.666;4.770;2023-04-24T01:38:40;67.70;;;61.85;;
8017;SDS011;4054;52.666;4.770;2023-04-24T01:39:13;66.93;;;61.15;;
8017;SDS011;4054;52.666;4.770;2023-04-24T01:39:47;66.55;;;60.53;;
8017;SDS011;4054;52.666;4.770;2023-04-24T01:40:22;66.70;;;60.88;;
8017;SDS011;4054;52.666;4.770;2023-04-24T01:40:55;66.65;;;61.00;;
8017;SDS011;4054;52.666;4.770;2023-04-24T01:41:29;65.60;;;60.25;;
8017;SDS011;4054;52.666;4.770;2023-04-24T01:42:03;65.55;;;60.05;;
8017;SDS011;4054;52.666;4.770;2023-04-24T01:42:37;65.97;;;60.55;;
8017;SDS011;4054;52.666;4.770;2023-04-24T01:43:13;65.28;;;59.92;;
8017;SDS011;4054;52.666;4.770;2023-04-24T01:43:45;67.05;;;61.17;;
8017;SDS011;4054;52.666;4.770;2023-04-24T01:44:18;65.57;;;60.33;;
8017;SDS011;4054;52.666;4.770;2023-04-24T01:44:52;64.85;;;59.90;;
8017;SDS011;4054;52.666;4.770;2023-04-24T01:45:25;66.40;;;60.85;;
8017;SDS011;4054;52.666;4.770;2023-04-24T01:45:57;66.38;;;60.60;;
8017;SDS011;4054;52.666;4.770;2023-04-24T01:46:31;64.88;;;59.75;;
8017;SDS011;4054;52.666;4.770;2023-04-24T01:47:08;64.95;;;59.85;;
8017;SDS011;4054;52.666;4.770;2023-04-24T01:47:40;66.57;;;60.97;;
8017;SDS011;4054;52.666;4.770;2023-04-24T01:48:14;65.80;;;60.40;;
8017;SDS011;4054;52.666;4.770;2023-04-24T01:48:47;65.50;;;60.20;;
8017;SDS011;4054;52.666;4.770;2023-04-24T01:49:20;66.82;;;60.90;;
8017;SDS011;4054;52.666;4.770;2023-04-24T01:49:53;65.57;;;59.80;;
8017;SDS011;4054;52.666;4.770;2023-04-24T01:50:26;65.93;;;60.13;;
8017;SDS011;4054;52.666;4.770;2023-04-24T01:50:59;65.28;;;59.80;;
8017;SDS011;4054;52.666;4.770;2023-04-24T01:51:34;64.75;;;59.55;;
8017;SDS011;4054;52.666;4.770;2023-04-24T01:52:07;64.57;;;59.55;;
8017;SDS011;4054;52.666;4.770;2023-04-24T01:52:41;64.38;;;59.30;;
8017;SDS011;4054;52.666;4.770;2023-04-24T01:53:14;64.90;;;59.25;;
8017;SDS011;4054;52.666;4.770;2023-04-24T01:53:47;64.53;;;59.45;;
8017;SDS011;4054;52.666;4.770;2023-04-24T01:54:20;66.30;;;60.85;;
8017;SDS011;4054;52.666;4.770;2023-04-24T01:54:53;63.92;;;58.90;;
8017;SDS011;4054;52.666;4.770;2023-04-24T01:55:27;64.75;;;59.42;;
8017;SDS011;4054;52.666;4.770;2023-04-24T01:55:59;65.32;;;59.85;;
8017;SDS011;4054;52.666;4.770;2023-04-24T01:56:34;64.18;;;58.97;;
8017;SDS011;4054;52.666;4.770;2023-04-24T01:57:07;66.35;;;60.58;;
8017;SDS011;4054;52.666;4.770;2023-04-24T01:57:40;64.53;;;59.35;;
8017;SDS011;4054;52.666;4.770;2023-04-24T01:58:13;64.32;;;59.22;;
8017;SDS011;4054;52.666;4.770;2023-04-24T01:58:46;64.93;;;59.72;;
8017;SDS011;4054;52.666;4.770;2023-04-24T01:59:19;65.28;;;60.08;;
8017;SDS011;4054;52.666;4.770;2023-04-24T01:59:55;64.97;;;59.55;;
8017;SDS011;4054;52.666;4.770;2023-04-24T02:02:41;64.40;;;59.20;;
8017;SDS011;4054;52.666;4.770;2023-04-24T02:03:18;64.30;;;58.95;;
8017;SDS011;4054;52.666;4.770;2023-04-24T02:03:53;63.35;;;58.60;;
8017;SDS011;4054;52.666;4.770;2023-04-24T02:04:27;64.55;;;59.25;;
8017;SDS011;4054;52.666;4.770;2023-04-24T02:05:00;63.75;;;58.47;;
8017;SDS011;4054;52.666;4.770;2023-04-24T02:05:32;65.15;;;58.97;;
8017;SDS011;4054;52.666;4.770;2023-04-24T02:06:07;63.55;;;58.67;;
8017;SDS011;4054;52.666;4.770;2023-04-24T02:06:39;63.63;;;58.78;;
8017;SDS011;4054;52.666;4.770;2023-04-24T02:07:12;63.20;;;58.28;;
8017;SDS011;4054;52.666;4.770;2023-04-24T02:07:47;63.47;;;58.50;;
8017;SDS011;4054;52.666;4.770;2023-04-24T02:08:19;63.35;;;58.55;;
8017;SDS011;4054;52.666;4.770;2023-04-24T02:08:53;62.92;;;58.10;;
8017;SDS011;4054;52.666;4.770;2023-04-24T02:09:26;64.15;;;58.67;;
8017;SDS011;4054;52.666;4.770;2023-04-24T02:09:59;64.57;;;59.50;;
8017;SDS011;4054;52.666;4.770;2023-04-24T02:10:32;62.90;;;58.20;;
8017;SDS011;4054;52.666;4.770;2023-04-24T02:11:05;63.30;;;58.42;;
8017;SDS011;4054;52.666;4.770;2023-04-24T02:11:38;63.25;;;58.47;;
8017;SDS011;4054;52.666;4.770;2023-04-24T02:12:11;63.15;;;58.53;;
8017;SDS011;4054;52.666;4.770;2023-04-24T02:12:44;63.47;;;58.40;;
8017;SDS011;4054;52.666;4.770;2023-04-24T02:13:17;63.40;;;58.30;;
8017;SDS011;4054;52.666;4.770;2023-04-24T02:13:50;62.88;;;57.90;;
8017;SDS011;4054;52.666;4.770;2023-04-24T02:14:22;62.63;;;57.80;;
8017;SDS011;4054;52.666;4.770;2023-04-24T02:14:56;62.65;;;58.05;;
8017;SDS011;4054;52.666;4.770;2023-04-24T02:15:29;62.80;;;57.83;;
8017;SDS011;4054;52.666;4.770;2023-04-24T02:16:03;62.97;;;57.97;;
8017;SDS011;4054;52.666;4.770;2023-04-24T02:16:37;63.58;;;58.40;;
8017;SDS011;4054;52.666;4.770;2023-04-24T02:17:09;63.75;;;58.63;;
8017;SDS011;4054;52.666;4.770;2023-04-24T02:17:43;63.70;;;58.83;;
8017;SDS011;4054;52.666;4.770;2023-04-24T02:18:17;62.78;;;58.00;;
8017;SDS011;4054;52.666;4.770;2023-04-24T02:18:49;62.50;;;57.90;;
8017;SDS011;4054;52.666;4.770;2023-04-24T02:19:22;63.13;;;58.38;;
8017;SDS011;4054;52.666;4.770;2023-04-24T02:19:55;62.92;;;58.13;;
8017;SDS011;4054;52.666;4.770;2023-04-24T02:20:28;63.20;;;58.10;;
8017;SDS011;4054;52.666;4.770;2023-04-24T02:21:00;63.03;;;58.03;;
8017;SDS011;4054;52.666;4.770;2023-04-24T02:21:34;63.28;;;58.20;;
8017;SDS011;4054;52.666;4.770;2023-04-24T02:22:06;63.45;;;58.05;;
8017;SDS011;4054;52.666;4.770;2023-04-24T02:22:39;62.40;;;57.55;;
8017;SDS011;4054;52.666;4.770;2023-04-24T02:23:14;62.80;;;58.05;;
8017;SDS011;4054;52.666;4.770;2023-04-24T02:23:46;62.55;;;57.95;;
8017;SDS011;4054;52.666;4.770;2023-04-24T02:24:19;62.97;;;57.97;;
8017;SDS011;4054;52.666;4.770;2023-04-24T02:24:52;62.70;;;58.20;;
8017;SDS011;4054;52.666;4.770;2023-04-24T02:25:25;62.25;;;57.60;;
8017;SDS011;4054;52.666;4.770;2023-04-24T02:25:59;62.65;;;57.75;;
8017;SDS011;4054;52.666;4.770;2023-04-24T02:26:33;62.53;;;57.90;;
8017;SDS011;4054;52.666;4.770;2023-04-24T02:27:05;62.65;;;58.03;;
8017;SDS011;4054;52.666;4.770;2023-04-24T02:27:38;62.80;;;58.05;;
8017;SDS011;4054;52.666;4.770;2023-04-24T02:28:11;62.63;;;57.95;;
8017;SDS011;4054;52.666;4.770;2023-04-24T02:28:44;63.13;;;58.33;;
8017;SDS011;4054;52.666;4.770;2023-04-24T02:29:17;63.08;;;58.25;;
8017;SDS011;4054;52.666;4.770;2023-04-24T02:29:50;63.20;;;58.13;;
8017;SDS011;4054;52.666;4.770;2023-04-24T02:30:23;63.17;;;58.20;;
8017;SDS011;4054;52.666;4.770;2023-04-24T02:30:56;63.22;;;58.20;;
8017;SDS011;4054;52.666;4.770;2023-04-24T02:31:31;62.40;;;57.80;;
8017;SDS011;4054;52.666;4.770;2023-04-24T02:32:03;63.17;;;58.35;;
8017;SDS011;4054;52.666;4.770;2023-04-24T02:32:37;62.35;;;57.83;;
8017;SDS011;4054;52.666;4.770;2023-04-24T02:33:15;62.10;;;57.42;;
8017;SDS011;4054;52.666;4.770;2023-04-24T02:33:48;62.60;;;57.72;;
8017;SDS011;4054;52.666;4.770;2023-04-24T02:34:20;62.67;;;57.83;;
8017;SDS011;4054;52.666;4.770;2023-04-24T02:34:54;63.38;;;58.58;;
8017;SDS011;4054;52.666;4.770;2023-04-24T02:35:26;62.97;;;58.13;;
8017;SDS011;4054;52.666;4.770;2023-04-24T02:35:59;62.73;;;57.83;;
8017;SDS011;4054;52.666;4.770;2023-04-24T02:36:33;62.65;;;57.95;;
8017;SDS011;4054;52.666;4.770;2023-04-24T02:37:05;62.13;;;57.72;;
8017;SDS011;4054;52.666;4.770;2023-04-24T02:37:38;62.00;;;57.50;;
8017;SDS011;4054;52.666;4.770;2023-04-24T02:38:10;62.13;;;57.63;;
8017;SDS011;4054;52.666;4.770;2023-04-24T02:38:45;62.42;;;57.78;;
8017;SDS011;4054;52.666;4.770;2023-04-24T02:39:18;62.50;;;57.70;;
8017;SDS011;4054;52.666;4.770;2023-04-24T02:39:50;62.75;;;58.00;;
8017;SDS011;4054;52.666;4.770;2023-04-24T02:40:24;62.75;;;58.03;;
8017;SDS011;4054;52.666;4.770;2023-04-24T02:40:57;63.58;;;58.25;;
8017;SDS011;4054;52.666;4.770;2023-04-24T02:41:30;62.25;;;57.72;;
8017;SDS011;4054;52.666;4.770;2023-04-24T02:42:04;62.92;;;58.00;;
8017;SDS011;4054;52.666;4.770;2023-04-24T02:42:36;63.17;;;58.03;;
8017;SDS011;4054;52.666;4.770;2023-04-24T02:43:10;63.47;;;58.30;;
8017;SDS011;4054;52.666;4.770;2023-04-24T02:43:42;63.08;;;58.13;;
8017;SDS011;4054;52.666;4.770;2023-04-24T02:44:15;62.70;;;58.00;;
8017;SDS011;4054;52.666;4.770;2023-04-24T02:44:49;62.65;;;58.03;;
8017;SDS011;4054;52.666;4.770;2023-04-24T02:45:27;62.33;;;57.63;;
8017;SDS011;4054;52.666;4.770;2023-04-24T02:45:59;62.83;;;58.25;;
8017;SDS011;4054;52.666;4.770;2023-04-24T02:46:32;63.05;;;58.45;;
8017;SDS011;4054;52.666;4.770;2023-04-24T02:47:06;63.85;;;58.35;;
8017;SDS011;4054;52.666;4.770;2023-04-24T02:47:39;62.72;;;57.95;;
8017;SDS011;4054;52.666;4.770;2023-04-24T02:48:12;62.40;;;57.90;;
8017;SDS011;4054;52.666;4.770;2023-04-24T02:48:46;63.20;;;58.20;;
8017;SDS011;4054;52.666;4.770;2023-04-24T02:49:18;63.00;;;57.95;;
8017;SDS011;4054;52.666;4.770;2023-04-24T02:49:51;63.40;;;58.28;;
8017;SDS011;4054;52.666;4.770;2023-04-24T02:50:25;62.80;;;57.92;;
8017;SDS011;4054;52.666;4.770;2023-04-24T02:50:57;63.28;;;58.42;;
8017;SDS011;4054;52.666;4.770;2023-04-24T02:51:30;63.20;;;58.20;;
8017;SDS011;4054;52.666;4.770;2023-04-24T02:52:03;64.05;;;58.50;;
8017;SDS011;4054;52.666;4.770;2023-04-24T02:52:36;63.90;;;58.60;;
8017;SDS011;4054;52.666;4.770;2023-04-24T02:53:09;63.90;;;58.40;;
8017;SDS011;4054;52.666;4.770;2023-04-24T02:53:42;63.28;;;58.38;;
8017;SDS011;4054;52.666;4.770;2023-04-24T02:54:16;63.33;;;58.30;;
8017;SDS011;4054;52.666;4.770;2023-04-24T02:54:48;64.43;;;59.40;;
8017;SDS011;4054;52.666;4.770;2023-04-24T02:55:22;63.33;;;58.13;;
8017;SDS011;4054;52.666;4.770;2023-04-24T02:55:54;63.30;;;58.30;;
8017;SDS011;4054;52.666;4.770;2023-04-24T02:56:27;62.33;;;57.83;;
8017;SDS011;4054;52.666;4.770;2023-04-24T02:57:02;63.22;;;58.45;;
8017;SDS011;4054;52.666;4.770;2023-04-24T02:57:35;63.85;;;58.65;;
8017;SDS011;4054;52.666;4.770;2023-04-24T02:58:08;63.35;;;58.65;;
8017;SDS011;4054;52.666;4.770;2023-04-24T02:58:44;64.43;;;59.20;;
8017;SDS011;4054;52.666;4.770;2023-04-24T02:59:16;64.05;;;59.08;;
8017;SDS011;4054;52.666;4.770;2023-04-24T02:59:49;64.07;;;59.08;;
8017;SDS011;4054;52.666;4.770;2023-04-24T03:00:22;64.25;;;59.03;;
8017;SDS011;4054;52.666;4.770;2023-04-24T03:00:55;63.90;;;58.90;;
8017;SDS011;4054;52.666;4.770;2023-04-24T03:01:28;64.72;;;59.72;;
8017;SDS011;4054;52.666;4.770;2023-04-24T03:02:02;63.33;;;58.47;;
8017;SDS011;4054;52.666;4.770;2023-04-24T03:02:34;63.80;;;58.90;;
8017;SDS011;4054;52.666;4.770;2023-04-24T03:03:07;63.35;;;58.55;;
8017;SDS011;4054;52.666;4.770;2023-04-24T03:03:41;64.28;;;59.08;;
8017;SDS011;4054;52.666;4.770;2023-04-24T03:04:14;63.95;;;59.22;;
8017;SDS011;4054;52.666;4.770;2023-04-24T03:04:47;64.47;;;59.63;;
8017;SDS011;4054;52.666;4.770;2023-04-24T03:05:20;63.88;;;59.00;;
8017;SDS011;4054;52.666;4.770;2023-04-24T03:05:53;64.63;;;59.50;;
8017;SDS011;4054;52.666;4.770;2023-04-24T03:06:27;64.55;;;59.25;;
8017;SDS011;4054;52.666;4.770;2023-04-24T03:07:00;65.40;;;60.17;;
8017;SDS011;4054;52.666;4.770;2023-04-24T03:07:37;64.78;;;59.47;;
8017;SDS011;4054;52.666;4.770;2023-04-24T03:08:10;64.05;;;59.05;;
8017;SDS011;4054;52.666;4.770;2023-04-24T03:08:42;64.82;;;59.72;;
8017;SDS011;4054;52.666;4.770;2023-04-24T03:09:17;64.25;;;59.20;;
8017;SDS011;4054;52.666;4.770;2023-04-24T03:09:51;65.95;;;60.42;;
8017;SDS011;4054;52.666;4.770;2023-04-24T03:10:24;65.78;;;60.50;;
8017;SDS011;4054;52.666;4.770;2023-04-24T03:10:58;64.95;;;59.78;;
8017;SDS011;4054;52.666;4.770;2023-04-24T03:11:30;64.85;;;59.65;;
8017;SDS011;4054;52.666;4.770;2023-04-24T03:12:03;65.45;;;59.97;;
8017;SDS011;4054;52.666;4.770;2023-04-24T03:12:36;65.80;;;60.45;;
8017;SDS011;4054;52.666;4.770;2023-04-24T03:13:09;66.30;;;60.50;;
8017;SDS011;4054;52.666;4.770;2023-04-24T03:13:42;64.50;;;59.40;;
8017;SDS011;4054;52.666;4.770;2023-04-24T03:14:15;65.18;;;59.97;;
8017;SDS011;4054;52.666;4.770;2023-04-24T03:14:48;65.78;;;60.28;;
8017;SDS011;4054;52.666;4.770;2023-04-24T03:15:24;65.45;;;60.17;;
8017;SDS011;4054;52.666;4.770;2023-04-24T03:15:58;64.75;;;59.55;;
8017;SDS011;4054;52.666;4.770;2023-04-24T03:16:32;65.13;;;59.88;;
8017;SDS011;4054;52.666;4.770;2023-04-24T03:17:05;65.65;;;60.20;;
8017;SDS011;4054;52.666;4.770;2023-04-24T03:17:41;65.07;;;59.90;;
8017;SDS011;4054;52.666;4.770;2023-04-24T03:18:14;65.90;;;60.60;;
8017;SDS011;4054;52.666;4.770;2023-04-24T03:18:47;64.20;;;59.35;;
8017;SDS011;4054;52.666;4.770;2023-04-24T03:19:22;64.88;;;59.33;;
8017;SDS011;4054;52.666;4.770;2023-04-24T03:20:08;64.35;;;59.15;;
8017;SDS011;4054;52.666;4.770;2023-04-24T03:20:41;64.35;;;59.30;;
8017;SDS011;4054;52.666;4.770;2023-04-24T03:21:18;64.47;;;59.00;;
8017;SDS011;4054;52.666;4.770;2023-04-24T03:21:52;63.85;;;59.13;;
8017;SDS011;4054;52.666;4.770;2023-04-24T03:22:25;63.92;;;58.85;;
8017;SDS011;4054;52.666;4.770;2023-04-24T03:22:59;63.25;;;58.42;;
8017;SDS011;4054;52.666;4.770;2023-04-24T03:23:35;63.80;;;59.00;;
8017;SDS011;4054;52.666;4.770;2023-04-24T03:24:09;63.05;;;58.45;;